sensor_id;sensor_type;location;lat;lon;timestamp;P1;durP1;ratioP1;P2;durP2;ratioP2
66597;SDS011;57424;53.128;6.406;2024-02-23T00:01:04;3.08;;;0.73;;
66597;SDS011;57424;53.128;6.406;2024-02-23T00:03:30;4.68;;;1.00;;
66597;SDS011;57424;53.128;6.406;2024-02-23T00:06:01;3.58;;;0.70;;
66597;SDS011;57424;53.128;6.406;2024-02-23T00:08:26;2.95;;;1.00;;
66597;SDS011;57424;53.128;6.406;2024-02-23T00:10:52;2.90;;;0.77;;
66597;SDS011;57424;53.128;6.406;2024-02-23T00:13:17;3.85;;;0.90;;
66597;SDS011;57424;53.128;6.406;2024-02-23T00:15:43;1.85;;;0.55;;
66597;SDS011;57424;53.128;6.406;2024-02-23T00:18:09;3.00;;;0.50;;
66597;SDS011;57424;53.128;6.406;2024-02-23T00:20:34;2.08;;;0.73;;
66597;SDS011;57424;53.128;6.406;2024-02-23T00:23:01;3.28;;;1.10;;
66597;SDS011;57424;53.128;6.406;2024-02-23T00:25:27;2.67;;;0.65;;
66597;SDS011;57424;53.128;6.406;2024-02-23T00:27:53;1.90;;;0.70;;
66597;SDS011;57424;53.128;6.406;2024-02-23T00:30:18;3.95;;;0.70;;
66597;SDS011;57424;53.128;6.406;2024-02-23T00:32:44;1.63;;;0.60;;
66597;SDS011;57424;53.128;6.406;2024-02-23T00:35:09;0.68;;;0.43;;
66597;SDS011;57424;53.128;6.406;2024-02-23T00:37:35;2.38;;;0.77;;
66597;SDS011;57424;53.128;6.406;2024-02-23T00:40:04;1.50;;;0.70;;
66597;SDS011;57424;53.128;6.406;2024-02-23T00:42:30;2.33;;;0.70;;
66597;SDS011;57424;53.128;6.406;2024-02-23T00:44:56;5.10;;;0.80;;
66597;SDS011;57424;53.128;6.406;2024-02-23T00:47:22;2.63;;;0.63;;
66597;SDS011;57424;53.128;6.406;2024-02-23T00:49:47;2.38;;;0.70;;
66597;SDS011;57424;53.128;6.406;2024-02-23T00:52:14;0.98;;;0.40;;
66597;SDS011;57424;53.128;6.406;2024-02-23T00:54:40;2.45;;;0.80;;
66597;SDS011;57424;53.128;6.406;2024-02-23T00:57:05;4.00;;;0.80;;
66597;SDS011;57424;53.128;6.406;2024-02-23T00:59:31;2.25;;;0.68;;
66597;SDS011;57424;53.128;6.406;2024-02-23T01:01:57;2.30;;;0.60;;
66597;SDS011;57424;53.128;6.406;2024-02-23T01:04:23;3.10;;;0.82;;
66597;SDS011;57424;53.128;6.406;2024-02-23T01:06:48;3.08;;;0.93;;
66597;SDS011;57424;53.128;6.406;2024-02-23T01:09:14;1.85;;;0.73;;
66597;SDS011;57424;53.128;6.406;2024-02-23T01:11:41;5.07;;;0.80;;
66597;SDS011;57424;53.128;6.406;2024-02-23T01:14:07;5.43;;;1.00;;
66597;SDS011;57424;53.128;6.406;2024-02-23T01:16:33;2.50;;;0.82;;
66597;SDS011;57424;53.128;6.406;2024-02-23T01:18:58;1.73;;;0.60;;
66597;SDS011;57424;53.128;6.406;2024-02-23T01:21:24;3.70;;;1.08;;
66597;SDS011;57424;53.128;6.406;2024-02-23T01:23:50;4.38;;;1.10;;
66597;SDS011;57424;53.128;6.406;2024-02-23T01:26:15;5.10;;;1.30;;
66597;SDS011;57424;53.128;6.406;2024-02-23T01:28:44;2.28;;;0.95;;
66597;SDS011;57424;53.128;6.406;2024-02-23T01:31:10;3.17;;;0.80;;
66597;SDS011;57424;53.128;6.406;2024-02-23T01:33:37;3.30;;;0.90;;
66597;SDS011;57424;53.128;6.406;2024-02-23T01:36:04;2.05;;;0.93;;
66597;SDS011;57424;53.128;6.406;2024-02-23T01:38:30;4.78;;;0.93;;
66597;SDS011;57424;53.128;6.406;2024-02-23T01:40:57;2.03;;;0.90;;
66597;SDS011;57424;53.128;6.406;2024-02-23T01:43:23;3.15;;;0.85;;
66597;SDS011;57424;53.128;6.406;2024-02-23T01:45:49;3.38;;;1.65;;
66597;SDS011;57424;53.128;6.406;2024-02-23T01:48:15;2.10;;;0.98;;
66597;SDS011;57424;53.128;6.406;2024-02-23T01:50:41;4.65;;;1.17;;
66597;SDS011;57424;53.128;6.406;2024-02-23T01:53:08;3.95;;;1.40;;
66597;SDS011;57424;53.128;6.406;2024-02-23T01:55:35;5.85;;;1.42;;
66597;SDS011;57424;53.128;6.406;2024-02-23T01:58:03;2.40;;;1.40;;
66597;SDS011;57424;53.128;6.406;2024-02-23T02:00:29;2.67;;;0.77;;
66597;SDS011;57424;53.128;6.406;2024-02-23T02:02:56;3.72;;;1.00;;
66597;SDS011;57424;53.128;6.406;2024-02-23T02:05:22;4.90;;;1.40;;
66597;SDS011;57424;53.128;6.406;2024-02-23T02:07:49;5.35;;;1.50;;
66597;SDS011;57424;53.128;6.406;2024-02-23T02:10:18;4.00;;;1.23;;
66597;SDS011;57424;53.128;6.406;2024-02-23T02:12:45;3.33;;;1.00;;
66597;SDS011;57424;53.128;6.406;2024-02-23T02:15:11;2.88;;;1.08;;
66597;SDS011;57424;53.128;6.406;2024-02-23T02:17:37;6.20;;;1.20;;
66597;SDS011;57424;53.128;6.406;2024-02-23T02:20:03;7.40;;;1.52;;
66597;SDS011;57424;53.128;6.406;2024-02-23T02:22:31;3.60;;;1.25;;
66597;SDS011;57424;53.128;6.406;2024-02-23T02:24:59;3.95;;;1.30;;
66597;SDS011;57424;53.128;6.406;2024-02-23T02:27:25;7.18;;;1.85;;
66597;SDS011;57424;53.128;6.406;2024-02-23T02:29:51;3.95;;;1.23;;
66597;SDS011;57424;53.128;6.406;2024-02-23T02:32:17;5.78;;;1.10;;
66597;SDS011;57424;53.128;6.406;2024-02-23T02:34:43;6.35;;;1.50;;
66597;SDS011;57424;53.128;6.406;2024-02-23T02:37:08;4.28;;;1.50;;
66597;SDS011;57424;53.128;6.406;2024-02-23T02:39:34;7.00;;;1.80;;
66597;SDS011;57424;53.128;6.406;2024-02-23T02:42:00;3.60;;;1.17;;
66597;SDS011;57424;53.128;6.406;2024-02-23T02:44:26;6.57;;;1.63;;
66597;SDS011;57424;53.128;6.406;2024-02-23T02:46:55;5.97;;;1.73;;
66597;SDS011;57424;53.128;6.406;2024-02-23T02:49:23;3.05;;;1.20;;
66597;SDS011;57424;53.128;6.406;2024-02-23T02:51:49;4.20;;;1.50;;
66597;SDS011;57424;53.128;6.406;2024-02-23T02:54:15;5.43;;;1.60;;
66597;SDS011;57424;53.128;6.406;2024-02-23T02:56:45;4.00;;;1.00;;
66597;SDS011;57424;53.128;6.406;2024-02-23T02:59:12;3.60;;;1.38;;
66597;SDS011;57424;53.128;6.406;2024-02-23T03:01:38;6.95;;;1.75;;
66597;SDS011;57424;53.128;6.406;2024-02-23T03:04:04;6.68;;;1.63;;
66597;SDS011;57424;53.128;6.406;2024-02-23T03:06:30;5.35;;;1.40;;
66597;SDS011;57424;53.128;6.406;2024-02-23T03:08:56;2.72;;;1.15;;
66597;SDS011;57424;53.128;6.406;2024-02-23T03:11:21;3.33;;;1.35;;
66597;SDS011;57424;53.128;6.406;2024-02-23T03:13:47;4.53;;;1.60;;
66597;SDS011;57424;53.128;6.406;2024-02-23T03:16:20;3.88;;;1.40;;
66597;SDS011;57424;53.128;6.406;2024-02-23T03:18:46;2.45;;;1.00;;
66597;SDS011;57424;53.128;6.406;2024-02-23T03:21:12;7.00;;;1.77;;
66597;SDS011;57424;53.128;6.406;2024-02-23T03:23:39;2.25;;;0.98;;
66597;SDS011;57424;53.128;6.406;2024-02-23T03:26:06;7.18;;;1.50;;
66597;SDS011;57424;53.128;6.406;2024-02-23T03:28:32;3.97;;;0.90;;
66597;SDS011;57424;53.128;6.406;2024-02-23T03:30:58;4.18;;;1.27;;
66597;SDS011;57424;53.128;6.406;2024-02-23T03:33:24;3.92;;;1.40;;
66597;SDS011;57424;53.128;6.406;2024-02-23T03:35:50;5.70;;;1.58;;
66597;SDS011;57424;53.128;6.406;2024-02-23T03:38:16;3.92;;;1.17;;
66597;SDS011;57424;53.128;6.406;2024-02-23T03:40:41;9.15;;;1.65;;
66597;SDS011;57424;53.128;6.406;2024-02-23T03:43:07;7.78;;;1.60;;
66597;SDS011;57424;53.128;6.406;2024-02-23T03:45:33;4.47;;;1.75;;
66597;SDS011;57424;53.128;6.406;2024-02-23T03:47:58;4.78;;;1.33;;
66597;SDS011;57424;53.128;6.406;2024-02-23T03:50:25;4.45;;;1.02;;
66597;SDS011;57424;53.128;6.406;2024-02-23T03:52:50;4.68;;;1.20;;
66597;SDS011;57424;53.128;6.406;2024-02-23T03:55:16;6.65;;;1.52;;
66597;SDS011;57424;53.128;6.406;2024-02-23T03:57:41;6.35;;;1.13;;
66597;SDS011;57424;53.128;6.406;2024-02-23T04:00:07;4.28;;;1.08;;
66597;SDS011;57424;53.128;6.406;2024-02-23T04:02:34;6.60;;;1.33;;
66597;SDS011;57424;53.128;6.406;2024-02-23T04:04:59;3.08;;;0.98;;
66597;SDS011;57424;53.128;6.406;2024-02-23T04:07:25;6.55;;;1.38;;
66597;SDS011;57424;53.128;6.406;2024-02-23T04:09:50;5.20;;;1.30;;
66597;SDS011;57424;53.128;6.406;2024-02-23T04:12:19;3.08;;;1.10;;
66597;SDS011;57424;53.128;6.406;2024-02-23T04:14:46;5.32;;;1.20;;
66597;SDS011;57424;53.128;6.406;2024-02-23T04:17:12;4.93;;;1.48;;
66597;SDS011;57424;53.128;6.406;2024-02-23T04:19:37;7.65;;;1.90;;
66597;SDS011;57424;53.128;6.406;2024-02-23T04:22:04;4.35;;;1.35;;
66597;SDS011;57424;53.128;6.406;2024-02-23T04:24:33;7.95;;;1.33;;
66597;SDS011;57424;53.128;6.406;2024-02-23T04:26:59;4.07;;;1.25;;
66597;SDS011;57424;53.128;6.406;2024-02-23T04:29:25;7.45;;;1.40;;
66597;SDS011;57424;53.128;6.406;2024-02-23T04:31:50;5.72;;;1.30;;
66597;SDS011;57424;53.128;6.406;2024-02-23T04:34:16;5.82;;;1.40;;
66597;SDS011;57424;53.128;6.406;2024-02-23T04:36:41;3.35;;;1.33;;
66597;SDS011;57424;53.128;6.406;2024-02-23T04:39:07;5.00;;;1.20;;
66597;SDS011;57424;53.128;6.406;2024-02-23T04:41:33;6.15;;;1.73;;
66597;SDS011;57424;53.128;6.406;2024-02-23T04:44:01;6.97;;;1.45;;
66597;SDS011;57424;53.128;6.406;2024-02-23T04:46:27;5.60;;;1.20;;
66597;SDS011;57424;53.128;6.406;2024-02-23T04:48:52;6.55;;;1.20;;
66597;SDS011;57424;53.128;6.406;2024-02-23T04:51:18;5.70;;;1.30;;
66597;SDS011;57424;53.128;6.406;2024-02-23T04:53:44;3.17;;;1.15;;
66597;SDS011;57424;53.128;6.406;2024-02-23T04:56:09;4.68;;;1.35;;
66597;SDS011;57424;53.128;6.406;2024-02-23T04:58:35;3.50;;;1.15;;
66597;SDS011;57424;53.128;6.406;2024-02-23T05:01:02;6.70;;;1.40;;
66597;SDS011;57424;53.128;6.406;2024-02-23T05:03:28;6.03;;;1.67;;
66597;SDS011;57424;53.128;6.406;2024-02-23T05:05:54;5.22;;;1.55;;
66597;SDS011;57424;53.128;6.406;2024-02-23T05:08:20;6.15;;;1.70;;
66597;SDS011;57424;53.128;6.406;2024-02-23T05:10:46;5.45;;;1.15;;
66597;SDS011;57424;53.128;6.406;2024-02-23T05:13:12;11.05;;;1.50;;
66597;SDS011;57424;53.128;6.406;2024-02-23T05:15:38;8.05;;;1.27;;
66597;SDS011;57424;53.128;6.406;2024-02-23T05:18:04;7.47;;;1.50;;
66597;SDS011;57424;53.128;6.406;2024-02-23T05:20:30;4.22;;;1.17;;
66597;SDS011;57424;53.128;6.406;2024-02-23T05:22:56;3.53;;;1.40;;
66597;SDS011;57424;53.128;6.406;2024-02-23T05:25:21;3.22;;;0.73;;
66597;SDS011;57424;53.128;6.406;2024-02-23T05:27:47;4.50;;;1.45;;
66597;SDS011;57424;53.128;6.406;2024-02-23T05:30:13;6.95;;;1.30;;
66597;SDS011;57424;53.128;6.406;2024-02-23T05:32:38;4.00;;;1.23;;
66597;SDS011;57424;53.128;6.406;2024-02-23T05:35:04;7.47;;;1.45;;
66597;SDS011;57424;53.128;6.406;2024-02-23T05:37:30;4.75;;;0.95;;
66597;SDS011;57424;53.128;6.406;2024-02-23T05:39:56;3.47;;;1.23;;
66597;SDS011;57424;53.128;6.406;2024-02-23T05:42:22;5.65;;;1.20;;
66597;SDS011;57424;53.128;6.406;2024-02-23T05:44:48;2.85;;;1.08;;
66597;SDS011;57424;53.128;6.406;2024-02-23T05:47:13;4.20;;;1.20;;
66597;SDS011;57424;53.128;6.406;2024-02-23T05:49:39;3.70;;;1.08;;
66597;SDS011;57424;53.128;6.406;2024-02-23T05:52:05;3.67;;;1.55;;
66597;SDS011;57424;53.128;6.406;2024-02-23T05:54:31;6.07;;;1.45;;
66597;SDS011;57424;53.128;6.406;2024-02-23T05:56:57;5.78;;;1.70;;
66597;SDS011;57424;53.128;6.406;2024-02-23T05:59:22;5.72;;;1.50;;
66597;SDS011;57424;53.128;6.406;2024-02-23T06:01:48;4.13;;;1.58;;
66597;SDS011;57424;53.128;6.406;2024-02-23T06:04:13;3.03;;;1.55;;
66597;SDS011;57424;53.128;6.406;2024-02-23T06:06:42;5.55;;;1.92;;
66597;SDS011;57424;53.128;6.406;2024-02-23T06:09:10;4.32;;;1.70;;
66597;SDS011;57424;53.128;6.406;2024-02-23T06:11:36;3.45;;;1.58;;
66597;SDS011;57424;53.128;6.406;2024-02-23T06:14:01;4.70;;;1.80;;
66597;SDS011;57424;53.128;6.406;2024-02-23T06:16:27;5.28;;;1.70;;
66597;SDS011;57424;53.128;6.406;2024-02-23T06:18:53;4.20;;;1.73;;
66597;SDS011;57424;53.128;6.406;2024-02-23T06:21:18;6.05;;;1.85;;
66597;SDS011;57424;53.128;6.406;2024-02-23T06:23:44;4.30;;;1.95;;
66597;SDS011;57424;53.128;6.406;2024-02-23T06:26:10;5.90;;;2.25;;
66597;SDS011;57424;53.128;6.406;2024-02-23T06:28:36;4.47;;;2.00;;
66597;SDS011;57424;53.128;6.406;2024-02-23T06:31:04;4.60;;;1.63;;
66597;SDS011;57424;53.128;6.406;2024-02-23T06:33:30;5.32;;;2.05;;
66597;SDS011;57424;53.128;6.406;2024-02-23T06:35:56;5.63;;;2.28;;
66597;SDS011;57424;53.128;6.406;2024-02-23T06:38:22;3.95;;;1.50;;
66597;SDS011;57424;53.128;6.406;2024-02-23T06:40:47;4.20;;;1.88;;
66597;SDS011;57424;53.128;6.406;2024-02-23T06:43:13;8.93;;;2.50;;
66597;SDS011;57424;53.128;6.406;2024-02-23T06:45:38;4.90;;;2.38;;
66597;SDS011;57424;53.128;6.406;2024-02-23T06:48:04;7.82;;;2.50;;
66597;SDS011;57424;53.128;6.406;2024-02-23T06:50:30;6.43;;;2.75;;
66597;SDS011;57424;53.128;6.406;2024-02-23T06:52:56;4.95;;;2.63;;
66597;SDS011;57424;53.128;6.406;2024-02-23T06:55:21;6.90;;;2.28;;
66597;SDS011;57424;53.128;6.406;2024-02-23T06:57:47;5.32;;;2.70;;
66597;SDS011;57424;53.128;6.406;2024-02-23T07:00:13;9.20;;;2.80;;
66597;SDS011;57424;53.128;6.406;2024-02-23T07:02:39;6.30;;;2.63;;
66597;SDS011;57424;53.128;6.406;2024-02-23T07:05:04;7.03;;;2.70;;
66597;SDS011;57424;53.128;6.406;2024-02-23T07:07:32;6.05;;;2.25;;
66597;SDS011;57424;53.128;6.406;2024-02-23T07:09:58;3.58;;;2.25;;
66597;SDS011;57424;53.128;6.406;2024-02-23T07:12:24;7.70;;;3.10;;
66597;SDS011;57424;53.128;6.406;2024-02-23T07:14:52;5.82;;;2.78;;
66597;SDS011;57424;53.128;6.406;2024-02-23T07:17:18;8.43;;;2.75;;
66597;SDS011;57424;53.128;6.406;2024-02-23T07:19:44;7.30;;;2.88;;
66597;SDS011;57424;53.128;6.406;2024-02-23T07:22:10;6.40;;;2.42;;
66597;SDS011;57424;53.128;6.406;2024-02-23T07:24:41;5.53;;;2.33;;
66597;SDS011;57424;53.128;6.406;2024-02-23T07:27:08;5.50;;;2.70;;
66597;SDS011;57424;53.128;6.406;2024-02-23T07:29:33;6.85;;;3.20;;
66597;SDS011;57424;53.128;6.406;2024-02-23T07:31:59;8.52;;;2.88;;
66597;SDS011;57424;53.128;6.406;2024-02-23T07:34:24;4.68;;;2.47;;
66597;SDS011;57424;53.128;6.406;2024-02-23T07:36:53;6.97;;;2.60;;
66597;SDS011;57424;53.128;6.406;2024-02-23T07:39:20;7.75;;;2.65;;
66597;SDS011;57424;53.128;6.406;2024-02-23T07:41:46;5.47;;;2.30;;
66597;SDS011;57424;53.128;6.406;2024-02-23T07:44:11;8.25;;;2.60;;
66597;SDS011;57424;53.128;6.406;2024-02-23T07:46:37;3.40;;;2.40;;
66597;SDS011;57424;53.128;6.406;2024-02-23T07:49:03;6.88;;;2.95;;
66597;SDS011;57424;53.128;6.406;2024-02-23T07:51:30;7.40;;;2.80;;
66597;SDS011;57424;53.128;6.406;2024-02-23T07:53:56;4.28;;;2.40;;
66597;SDS011;57424;53.128;6.406;2024-02-23T07:56:21;5.10;;;2.40;;
66597;SDS011;57424;53.128;6.406;2024-02-23T07:58:47;6.13;;;2.35;;
66597;SDS011;57424;53.128;6.406;2024-02-23T08:01:15;4.35;;;2.45;;
66597;SDS011;57424;53.128;6.406;2024-02-23T08:03:41;4.43;;;2.80;;
66597;SDS011;57424;53.128;6.406;2024-02-23T08:06:06;5.45;;;2.70;;
66597;SDS011;57424;53.128;6.406;2024-02-23T08:08:32;6.07;;;2.53;;
66597;SDS011;57424;53.128;6.406;2024-02-23T08:11:00;7.50;;;3.05;;
66597;SDS011;57424;53.128;6.406;2024-02-23T08:13:26;5.55;;;2.63;;
66597;SDS011;57424;53.128;6.406;2024-02-23T08:15:52;5.28;;;2.47;;
66597;SDS011;57424;53.128;6.406;2024-02-23T08:18:18;7.80;;;3.10;;
66597;SDS011;57424;53.128;6.406;2024-02-23T08:20:43;5.00;;;2.42;;
66597;SDS011;57424;53.128;6.406;2024-02-23T08:23:09;4.72;;;2.40;;
66597;SDS011;57424;53.128;6.406;2024-02-23T08:25:34;4.53;;;2.30;;
66597;SDS011;57424;53.128;6.406;2024-02-23T08:28:01;4.85;;;2.60;;
66597;SDS011;57424;53.128;6.406;2024-02-23T08:30:26;7.72;;;2.70;;
66597;SDS011;57424;53.128;6.406;2024-02-23T08:32:52;5.90;;;2.88;;
66597;SDS011;57424;53.128;6.406;2024-02-23T08:35:18;3.75;;;2.22;;
66597;SDS011;57424;53.128;6.406;2024-02-23T08:37:43;4.50;;;2.40;;
66597;SDS011;57424;53.128;6.406;2024-02-23T08:40:09;4.00;;;2.63;;
66597;SDS011;57424;53.128;6.406;2024-02-23T08:42:35;5.45;;;2.55;;
66597;SDS011;57424;53.128;6.406;2024-02-23T08:45:01;4.40;;;2.08;;
66597;SDS011;57424;53.128;6.406;2024-02-23T08:47:27;4.38;;;2.35;;
66597;SDS011;57424;53.128;6.406;2024-02-23T08:49:57;5.18;;;2.58;;
66597;SDS011;57424;53.128;6.406;2024-02-23T08:52:22;4.75;;;2.08;;
66597;SDS011;57424;53.128;6.406;2024-02-23T08:54:48;5.65;;;2.53;;
66597;SDS011;57424;53.128;6.406;2024-02-23T08:57:14;5.68;;;2.28;;
66597;SDS011;57424;53.128;6.406;2024-02-23T08:59:44;3.47;;;2.25;;
66597;SDS011;57424;53.128;6.406;2024-02-23T09:02:12;5.55;;;2.30;;
66597;SDS011;57424;53.128;6.406;2024-02-23T09:04:38;4.45;;;2.55;;
66597;SDS011;57424;53.128;6.406;2024-02-23T09:07:03;5.95;;;2.22;;
66597;SDS011;57424;53.128;6.406;2024-02-23T09:09:29;3.00;;;2.30;;
66597;SDS011;57424;53.128;6.406;2024-02-23T09:11:55;3.53;;;2.45;;
66597;SDS011;57424;53.128;6.406;2024-02-23T09:14:21;4.97;;;2.40;;
66597;SDS011;57424;53.128;6.406;2024-02-23T09:16:46;6.20;;;2.60;;
66597;SDS011;57424;53.128;6.406;2024-02-23T09:19:15;3.25;;;2.22;;
66597;SDS011;57424;53.128;6.406;2024-02-23T09:21:45;3.35;;;2.13;;
66597;SDS011;57424;53.128;6.406;2024-02-23T09:24:11;3.92;;;2.08;;
66597;SDS011;57424;53.128;6.406;2024-02-23T09:26:37;7.00;;;2.42;;
66597;SDS011;57424;53.128;6.406;2024-02-23T09:29:04;3.72;;;2.20;;
66597;SDS011;57424;53.128;6.406;2024-02-23T09:31:29;4.57;;;2.20;;
66597;SDS011;57424;53.128;6.406;2024-02-23T09:33:56;6.93;;;2.50;;
66597;SDS011;57424;53.128;6.406;2024-02-23T09:36:22;5.15;;;2.30;;
66597;SDS011;57424;53.128;6.406;2024-02-23T09:38:48;8.07;;;3.03;;
66597;SDS011;57424;53.128;6.406;2024-02-23T09:41:17;4.05;;;2.10;;
66597;SDS011;57424;53.128;6.406;2024-02-23T09:43:46;6.10;;;2.45;;
66597;SDS011;57424;53.128;6.406;2024-02-23T09:46:12;4.30;;;1.75;;
66597;SDS011;57424;53.128;6.406;2024-02-23T09:48:39;6.15;;;2.42;;
66597;SDS011;57424;53.128;6.406;2024-02-23T09:51:09;4.75;;;2.05;;
66597;SDS011;57424;53.128;6.406;2024-02-23T09:53:39;4.82;;;2.03;;
66597;SDS011;57424;53.128;6.406;2024-02-23T09:56:07;5.05;;;2.17;;
66597;SDS011;57424;53.128;6.406;2024-02-23T09:58:34;4.18;;;2.05;;
66597;SDS011;57424;53.128;6.406;2024-02-23T10:01:02;5.22;;;1.90;;
66597;SDS011;57424;53.128;6.406;2024-02-23T10:03:29;5.05;;;1.73;;
66597;SDS011;57424;53.128;6.406;2024-02-23T10:05:58;4.85;;;1.83;;
66597;SDS011;57424;53.128;6.406;2024-02-23T10:08:28;11.95;;;2.15;;
66597;SDS011;57424;53.128;6.406;2024-02-23T10:10:54;5.22;;;2.00;;
66597;SDS011;57424;53.128;6.406;2024-02-23T10:13:21;4.60;;;2.25;;
66597;SDS011;57424;53.128;6.406;2024-02-23T10:15:51;5.78;;;2.22;;
66597;SDS011;57424;53.128;6.406;2024-02-23T10:18:17;7.45;;;2.10;;
66597;SDS011;57424;53.128;6.406;2024-02-23T10:20:43;4.25;;;1.75;;
66597;SDS011;57424;53.128;6.406;2024-02-23T10:23:08;3.85;;;2.00;;
66597;SDS011;57424;53.128;6.406;2024-02-23T10:25:35;7.15;;;1.90;;
66597;SDS011;57424;53.128;6.406;2024-02-23T10:28:02;6.03;;;1.80;;
66597;SDS011;57424;53.128;6.406;2024-02-23T10:30:28;3.45;;;1.88;;
66597;SDS011;57424;53.128;6.406;2024-02-23T10:32:55;4.97;;;1.88;;
66597;SDS011;57424;53.128;6.406;2024-02-23T10:35:22;6.45;;;2.17;;
66597;SDS011;57424;53.128;6.406;2024-02-23T10:37:49;5.38;;;1.90;;
66597;SDS011;57424;53.128;6.406;2024-02-23T10:40:16;6.63;;;1.90;;
66597;SDS011;57424;53.128;6.406;2024-02-23T10:42:45;3.20;;;2.00;;
66597;SDS011;57424;53.128;6.406;2024-02-23T10:45:16;3.63;;;1.80;;
66597;SDS011;57424;53.128;6.406;2024-02-23T10:47:42;5.22;;;1.42;;
66597;SDS011;57424;53.128;6.406;2024-02-23T10:50:08;4.07;;;2.00;;
66597;SDS011;57424;53.128;6.406;2024-02-23T10:52:35;2.53;;;1.60;;
66597;SDS011;57424;53.128;6.406;2024-02-23T10:55:03;2.85;;;1.88;;
66597;SDS011;57424;53.128;6.406;2024-02-23T10:57:31;4.07;;;1.77;;
66597;SDS011;57424;53.128;6.406;2024-02-23T10:59:57;4.90;;;1.80;;
66597;SDS011;57424;53.128;6.406;2024-02-23T11:02:23;2.35;;;1.73;;
66597;SDS011;57424;53.128;6.406;2024-02-23T11:04:53;3.78;;;1.85;;
66597;SDS011;57424;53.128;6.406;2024-02-23T11:07:21;3.58;;;1.90;;
66597;SDS011;57424;53.128;6.406;2024-02-23T11:09:53;4.35;;;1.65;;
66597;SDS011;57424;53.128;6.406;2024-02-23T11:12:25;4.63;;;1.75;;
66597;SDS011;57424;53.128;6.406;2024-02-23T11:14:57;4.38;;;1.67;;
66597;SDS011;57424;53.128;6.406;2024-02-23T11:17:26;2.85;;;1.67;;
66597;SDS011;57424;53.128;6.406;2024-02-23T11:19:55;6.30;;;1.65;;
66597;SDS011;57424;53.128;6.406;2024-02-23T11:22:25;5.47;;;1.88;;
66597;SDS011;57424;53.128;6.406;2024-02-23T11:24:52;4.15;;;1.70;;
66597;SDS011;57424;53.128;6.406;2024-02-23T11:27:18;3.55;;;1.58;;
66597;SDS011;57424;53.128;6.406;2024-02-23T11:29:47;4.25;;;1.85;;
66597;SDS011;57424;53.128;6.406;2024-02-23T11:32:16;3.75;;;1.70;;
66597;SDS011;57424;53.128;6.406;2024-02-23T11:34:54;4.40;;;2.17;;
66597;SDS011;57424;53.128;6.406;2024-02-23T11:37:21;6.30;;;2.40;;
66597;SDS011;57424;53.128;6.406;2024-02-23T11:39:47;5.93;;;2.35;;
66597;SDS011;57424;53.128;6.406;2024-02-23T11:42:13;4.75;;;1.48;;
66597;SDS011;57424;53.128;6.406;2024-02-23T11:44:39;4.43;;;2.08;;
66597;SDS011;57424;53.128;6.406;2024-02-23T11:47:06;5.40;;;1.80;;
66597;SDS011;57424;53.128;6.406;2024-02-23T11:49:32;5.13;;;1.90;;
66597;SDS011;57424;53.128;6.406;2024-02-23T11:51:58;6.07;;;2.22;;
66597;SDS011;57424;53.128;6.406;2024-02-23T11:54:24;4.22;;;1.77;;
66597;SDS011;57424;53.128;6.406;2024-02-23T11:56:49;5.28;;;1.83;;
66597;SDS011;57424;53.128;6.406;2024-02-23T11:59:17;4.93;;;2.23;;
66597;SDS011;57424;53.128;6.406;2024-02-23T12:01:45;4.78;;;2.00;;
66597;SDS011;57424;53.128;6.406;2024-02-23T12:04:12;4.30;;;2.20;;
66597;SDS011;57424;53.128;6.406;2024-02-23T12:06:39;4.55;;;1.73;;
66597;SDS011;57424;53.128;6.406;2024-02-23T12:09:05;4.43;;;1.92;;
66597;SDS011;57424;53.128;6.406;2024-02-23T12:11:31;3.47;;;1.60;;
66597;SDS011;57424;53.128;6.406;2024-02-23T12:13:57;5.55;;;1.98;;
66597;SDS011;57424;53.128;6.406;2024-02-23T12:16:22;4.40;;;2.03;;
66597;SDS011;57424;53.128;6.406;2024-02-23T12:18:53;4.20;;;2.13;;
66597;SDS011;57424;53.128;6.406;2024-02-23T12:21:20;2.78;;;1.60;;
66597;SDS011;57424;53.128;6.406;2024-02-23T12:23:48;5.53;;;1.70;;
66597;SDS011;57424;53.128;6.406;2024-02-23T12:26:15;4.43;;;2.15;;
66597;SDS011;57424;53.128;6.406;2024-02-23T12:28:42;4.72;;;1.73;;
66597;SDS011;57424;53.128;6.406;2024-02-23T12:31:08;6.07;;;1.85;;
66597;SDS011;57424;53.128;6.406;2024-02-23T12:33:34;4.68;;;1.80;;
66597;SDS011;57424;53.128;6.406;2024-02-23T12:36:01;2.88;;;1.60;;
66597;SDS011;57424;53.128;6.406;2024-02-23T12:38:31;3.67;;;1.35;;
66597;SDS011;57424;53.128;6.406;2024-02-23T12:40:56;2.97;;;1.58;;
66597;SDS011;57424;53.128;6.406;2024-02-23T12:43:23;3.45;;;1.50;;
66597;SDS011;57424;53.128;6.406;2024-02-23T12:45:52;2.85;;;1.67;;
66597;SDS011;57424;53.128;6.406;2024-02-23T12:48:19;4.47;;;2.00;;
66597;SDS011;57424;53.128;6.406;2024-02-23T12:50:48;5.20;;;1.90;;
66597;SDS011;57424;53.128;6.406;2024-02-23T12:53:29;3.45;;;1.63;;
66597;SDS011;57424;53.128;6.406;2024-02-23T12:56:06;4.60;;;1.83;;
66597;SDS011;57424;53.128;6.406;2024-02-23T12:58:33;4.10;;;2.10;;
66597;SDS011;57424;53.128;6.406;2024-02-23T13:01:00;3.30;;;1.50;;
66597;SDS011;57424;53.128;6.406;2024-02-23T13:03:26;3.72;;;1.80;;
66597;SDS011;57424;53.128;6.406;2024-02-23T13:05:56;2.85;;;1.50;;
66597;SDS011;57424;53.128;6.406;2024-02-23T13:08:22;6.78;;;1.80;;
66597;SDS011;57424;53.128;6.406;2024-02-23T13:10:48;3.17;;;1.40;;
66597;SDS011;57424;53.128;6.406;2024-02-23T13:13:14;6.47;;;1.80;;
66597;SDS011;57424;53.128;6.406;2024-02-23T13:15:41;2.83;;;1.52;;
66597;SDS011;57424;53.128;6.406;2024-02-23T13:18:07;4.57;;;1.95;;
66597;SDS011;57424;53.128;6.406;2024-02-23T13:20:32;5.25;;;1.83;;
66597;SDS011;57424;53.128;6.406;2024-02-23T13:22:58;3.30;;;1.45;;
66597;SDS011;57424;53.128;6.406;2024-02-23T13:25:24;4.10;;;1.50;;
66597;SDS011;57424;53.128;6.406;2024-02-23T13:27:49;3.47;;;1.50;;
66597;SDS011;57424;53.128;6.406;2024-02-23T13:30:15;2.92;;;1.48;;
66597;SDS011;57424;53.128;6.406;2024-02-23T13:32:40;3.35;;;1.58;;
66597;SDS011;57424;53.128;6.406;2024-02-23T13:35:06;4.60;;;1.90;;
66597;SDS011;57424;53.128;6.406;2024-02-23T13:37:33;2.45;;;1.48;;
66597;SDS011;57424;53.128;6.406;2024-02-23T13:39:59;3.00;;;1.50;;
66597;SDS011;57424;53.128;6.406;2024-02-23T13:42:25;2.78;;;1.40;;
66597;SDS011;57424;53.128;6.406;2024-02-23T13:44:51;2.97;;;1.55;;
66597;SDS011;57424;53.128;6.406;2024-02-23T13:47:16;3.10;;;1.50;;
66597;SDS011;57424;53.128;6.406;2024-02-23T13:49:42;3.45;;;1.60;;
66597;SDS011;57424;53.128;6.406;2024-02-23T13:52:08;5.05;;;1.85;;
66597;SDS011;57424;53.128;6.406;2024-02-23T13:54:33;2.15;;;1.15;;
66597;SDS011;57424;53.128;6.406;2024-02-23T13:56:59;4.03;;;1.60;;
66597;SDS011;57424;53.128;6.406;2024-02-23T13:59:25;3.88;;;1.50;;
66597;SDS011;57424;53.128;6.406;2024-02-23T14:01:50;4.15;;;1.33;;
66597;SDS011;57424;53.128;6.406;2024-02-23T14:04:16;3.97;;;1.40;;
66597;SDS011;57424;53.128;6.406;2024-02-23T14:06:42;2.92;;;1.50;;
66597;SDS011;57424;53.128;6.406;2024-02-23T14:09:08;2.60;;;1.52;;
66597;SDS011;57424;53.128;6.406;2024-02-23T14:11:34;3.95;;;1.58;;
66597;SDS011;57424;53.128;6.406;2024-02-23T14:14:00;3.67;;;1.95;;
66597;SDS011;57424;53.128;6.406;2024-02-23T14:16:27;3.10;;;1.80;;
66597;SDS011;57424;53.128;6.406;2024-02-23T14:18:53;3.15;;;1.40;;
66597;SDS011;57424;53.128;6.406;2024-02-23T14:21:20;3.83;;;1.70;;
66597;SDS011;57424;53.128;6.406;2024-02-23T14:23:47;7.57;;;1.90;;
66597;SDS011;57424;53.128;6.406;2024-02-23T14:26:13;3.28;;;1.45;;
66597;SDS011;57424;53.128;6.406;2024-02-23T14:28:38;2.65;;;1.70;;
66597;SDS011;57424;53.128;6.406;2024-02-23T14:31:04;5.45;;;1.67;;
66597;SDS011;57424;53.128;6.406;2024-02-23T14:33:31;3.10;;;1.58;;
66597;SDS011;57424;53.128;6.406;2024-02-23T14:35:57;4.03;;;1.70;;
66597;SDS011;57424;53.128;6.406;2024-02-23T14:38:23;3.00;;;1.50;;
66597;SDS011;57424;53.128;6.406;2024-02-23T14:40:48;3.90;;;1.60;;
66597;SDS011;57424;53.128;6.406;2024-02-23T14:43:14;2.58;;;1.80;;